Time;durP1;ratioP1;P1;durP2;ratioP2;P2;SDS_P1;SDS_P2;PMS_P1;PMS_P2;Temp;Humidity;BMP_temperature;BMP_pressure;BME280_temperature;BME280_humidity;BME280_pressure;Samples;Min_cycle;Max_cycle;Signal;HPM_P1;HPM_P2
2023/03/18 00:00:40;;;;;;;37.35;15.57;;;;;;;;;;6212653;23;20000;-68
2023/03/18 00:03:06;;;;;;;27.42;13.45;;;;;;;;;;6211945;23;20077;-68
2023/03/18 00:05:33;;;;;;;22.52;11.50;;;;;;;;;;6211385;23;20084;-68
2023/03/18 00:08:00;;;;;;;25.65;11.50;;;;;;;;;;6211736;23;20001;-69
2023/03/18 00:10:26;;;;;;;26.88;11.18;;;;;;;;;;6211307;23;20004;-68
2023/03/18 00:12:52;;;;;;;23.73;11.60;;;;;;;;;;6211403;23;20012;-69
2023/03/18 00:15:18;;;;;;;23.77;11.32;;;;;;;;;;6211383;23;20325;-68
2023/03/18 06:47:19;;;;;;;39.60;21.80;;;;;;;;;;6302377;22;20042;-69
2023/03/18 06:49:46;;;;;;;38.90;21.30;;;;;;;;;;6305319;22;20015;-69
2023/03/18 06:52:13;;;;;;;37.28;20.08;;;;;;;;;;6304712;22;20072;-67
2023/03/18 06:54:39;;;;;;;36.83;21.77;;;;;;;;;;6305146;22;20013;-67
2023/03/18 06:57:06;;;;;;;39.88;22.67;;;;;;;;;;6304082;22;20082;-69
2023/03/18 06:59:32;;;;;;;39.80;20.83;;;;;;;;;;6303876;22;20056;-67
2023/03/18 07:01:58;;;;;;;35.33;20.13;;;;;;;;;;6303990;22;20052;-70
2023/03/18 07:04:24;;;;;;;30.95;18.50;;;;;;;;;;6304107;22;20078;-70
2023/03/18 07:06:51;;;;;;;32.08;19.60;;;;;;;;;;6303879;22;20003;-70
2023/03/18 07:09:17;;;;;;;33.50;19.27;;;;;;;;;;6303538;22;20010;-70
2023/03/18 07:11:45;;;;;;;32.78;18.55;;;;;;;;;;6303994;22;19999;-68
2023/03/18 07:14:13;;;;;;;30.58;17.92;;;;;;;;;;6304465;22;20038;-65
2023/03/18 07:16:39;;;;;;;31.50;17.42;;;;;;;;;;6303674;22;20013;-67
2023/03/18 07:19:06;;;;;;;30.83;18.67;;;;;;;;;;6304517;22;20064;-70
2023/03/18 07:21:32;;;;;;;30.67;16.42;;;;;;;;;;6305401;22;20007;-67
2023/03/18 07:23:58;;;;;;;29.95;16.75;;;;;;;;;;6304689;22;20006;-69
2023/03/18 07:26:24;;;;;;;27.17;15.82;;;;;;;;;;6305081;22;20052;-67
2023/03/18 07:28:51;;;;;;;29.20;16.35;;;;;;;;;;6303230;22;20003;-68
2023/03/18 07:31:17;;;;;;;28.17;13.43;;;;;;;;;;6304687;22;20003;-68
2023/03/18 07:33:43;;;;;;;17.83;11.50;;;;;;;;;;6304681;22;20374;-67
2023/03/18 07:36:09;;;;;;;17.75;10.15;;;;;;;;;;6303624;22;20003;-67
2023/03/18 07:38:35;;;;;;;20.08;10.05;;;;;;;;;;6304788;22;20013;-68
2023/03/18 07:41:01;;;;;;;22.20;10.57;;;;;;;;;;6304254;22;20516;-67
2023/03/18 07:43:27;;;;;;;16.95;9.52;;;;;;;;;;6304524;22;20026;-68
2023/03/18 07:45:54;;;;;;;16.40;9.90;;;;;;;;;;6304341;22;20039;-69
2023/03/18 07:48:20;;;;;;;15.95;9.77;;;;;;;;;;6304488;22;20428;-64
2023/03/18 07:50:46;;;;;;;17.88;9.80;;;;;;;;;;6304503;22;20011;-65
2023/03/18 07:53:13;;;;;;;18.90;9.98;;;;;;;;;;6303033;22;20035;-64
2023/03/18 07:55:40;;;;;;;20.75;8.30;;;;;;;;;;6304147;22;20049;-63
2023/03/18 07:58:07;;;;;;;12.80;7.25;;;;;;;;;;6304251;22;20733;-68
2023/03/18 08:00:34;;;;;;;16.67;10.10;;;;;;;;;;6304388;22;19999;-70
2023/03/18 08:03:01;;;;;;;12.93;7.97;;;;;;;;;;6304601;22;20129;-67
2023/03/18 08:05:27;;;;;;;12.18;7.47;;;;;;;;;;6304195;22;20076;-66
2023/03/18 08:07:54;;;;;;;15.65;8.27;;;;;;;;;;6304685;22;19999;-70
2023/03/18 08:10:20;;;;;;;11.93;6.97;;;;;;;;;;6304874;22;20000;-69
2023/03/18 08:12:46;;;;;;;17.70;8.35;;;;;;;;;;6304177;22;20007;-68
2023/03/18 08:15:12;;;;;;;13.18;7.90;;;;;;;;;;6304489;22;20007;-68
2023/03/18 08:17:38;;;;;;;13.10;7.07;;;;;;;;;;6304282;22;19995;-68
2023/03/18 08:20:05;;;;;;;15.35;7.93;;;;;;;;;;6303992;22;20007;-67
2023/03/18 08:22:31;;;;;;;15.45;9.20;;;;;;;;;;6304281;22;20006;-67
2023/03/18 08:24:57;;;;;;;14.45;8.15;;;;;;;;;;6304288;22;20007;-70
2023/03/18 08:27:23;;;;;;;10.90;6.65;;;;;;;;;;6302698;22;20448;-69
2023/03/18 08:29:49;;;;;;;13.68;7.85;;;;;;;;;;6304359;22;20008;-68
2023/03/18 08:32:15;;;;;;;21.38;9.93;;;;;;;;;;6304062;22;20042;-67
2023/03/18 08:34:42;;;;;;;14.80;8.23;;;;;;;;;;6304247;22;20045;-68
2023/03/18 08:37:09;;;;;;;16.27;6.72;;;;;;;;;;6304439;22;20003;-67
2023/03/18 08:39:35;;;;;;;16.35;8.30;;;;;;;;;;6302670;22;20534;-66
2023/03/18 08:42:04;;;;;;;12.90;7.53;;;;;;;;;;6302988;22;19996;-69
2023/03/18 08:44:30;;;;;;;12.70;6.95;;;;;;;;;;6301330;22;20003;-66
2023/03/18 08:46:56;;;;;;;11.00;6.60;;;;;;;;;;6302695;22;20019;-66
2023/03/18 08:49:23;;;;;;;17.95;8.73;;;;;;;;;;6303457;22;19999;-67
2023/03/18 08:51:49;;;;;;;11.98;6.82;;;;;;;;;;6306139;22;20069;-68
2023/03/18 08:54:15;;;;;;;9.70;5.95;;;;;;;;;;6305995;22;20008;-68
2023/03/18 08:56:41;;;;;;;25.50;14.27;;;;;;;;;;6305444;22;20070;-68
2023/03/18 08:59:08;;;;;;;10.48;6.07;;;;;;;;;;6305225;22;20444;-63
2023/03/18 09:01:34;;;;;;;10.60;5.15;;;;;;;;;;6305782;22;20304;-68
2023/03/18 09:04:00;;;;;;;10.02;5.95;;;;;;;;;;6306049;22;20030;-67
2023/03/18 09:06:26;;;;;;;16.95;9.07;;;;;;;;;;6306109;22;20007;-69
2023/03/18 09:08:52;;;;;;;9.68;5.13;;;;;;;;;;6305378;22;19999;-68
2023/03/18 09:11:19;;;;;;;12.50;5.25;;;;;;;;;;6302114;22;20006;-67
2023/03/18 09:13:45;;;;;;;7.95;5.43;;;;;;;;;;6304787;22;20010;-64
2023/03/18 09:16:11;;;;;;;16.35;9.30;;;;;;;;;;6305346;22;20082;-71
2023/03/18 09:18:38;;;;;;;8.35;5.35;;;;;;;;;;6304464;22;20400;-66
2023/03/18 09:21:04;;;;;;;9.13;5.72;;;;;;;;;;6305125;22;19999;-69
2023/03/18 09:23:31;;;;;;;10.45;5.03;;;;;;;;;;6305278;22;20489;-65
2023/03/18 09:25:58;;;;;;;10.00;5.75;;;;;;;;;;6305390;22;20134;-64
2023/03/18 09:28:24;;;;;;;13.75;7.97;;;;;;;;;;6303759;22;19999;-64
2023/03/18 09:30:50;;;;;;;10.05;5.85;;;;;;;;;;6304186;22;20436;-65
2023/03/18 09:33:17;;;;;;;11.93;6.55;;;;;;;;;;6304147;22;20335;-64
2023/03/18 09:35:43;;;;;;;11.43;6.22;;;;;;;;;;6304906;22;20006;-65
2023/03/18 09:38:16;;;;;;;12.55;7.20;;;;;;;;;;6305389;22;20023;-69
2023/03/18 09:40:58;;;;;;;9.35;5.40;;;;;;;;;;6304947;22;20006;-64
2023/03/18 09:43:27;;;;;;;7.00;4.53;;;;;;;;;;6305985;22;19995;-64
2023/03/18 09:45:59;;;;;;;10.05;5.57;;;;;;;;;;6305228;22;20102;-65
2023/03/18 09:48:25;;;;;;;;;;;;;;;;;;6306566;22;20438;-66
2023/03/18 09:50:57;;;;;;;9.35;5.50;;;;;;;;;;6305909;22;19899;-65
2023/03/18 09:53:26;;;;;;;9.88;6.07;;;;;;;;;;6305637;22;20038;-64
2023/03/18 09:55:58;;;;;;;16.30;7.93;;;;;;;;;;6305796;22;20019;-66
2023/03/18 09:58:27;;;;;;;7.05;4.00;;;;;;;;;;6305474;22;20007;-64
2023/03/18 10:00:56;;;;;;;7.53;5.10;;;;;;;;;;6305591;22;20030;-64
2023/03/18 10:03:22;;;;;;;9.25;5.65;;;;;;;;;;6304822;22;20057;-66
2023/03/18 10:06:09;;;;;;;9.82;5.13;;;;;;;;;;6304778;22;19999;-64
2023/03/18 10:08:52;;;;;;;7.60;4.97;;;;;;;;;;6279228;22;20047;-69
2023/03/18 10:11:38;;;;;;;9.77;5.60;;;;;;;;;;6305456;22;20049;-64
2023/03/18 10:14:10;;;;;;;11.30;4.78;;;;;;;;;;6305462;22;20507;-64
2023/03/18 10:16:37;;;;;;;;;;;;;;;;;;6305855;22;20010;-63
2023/03/18 10:19:03;;;;;;;7.68;4.68;;;;;;;;;;6305267;22;19906;-63
2023/03/18 10:22:04;;;;;;;8.00;3.75;;;;;;;;;;6305476;22;20397;-64
2023/03/18 10:24:30;;;;;;;6.88;4.00;;;;;;;;;;6180510;23;20012;-63
2023/03/18 10:27:00;;;;;;;5.72;4.07;;;;;;;;;;6179916;23;20016;-68
2023/03/18 10:29:29;;;;;;;10.95;4.88;;;;;;;;;;6180324;23;20013;-63
2023/03/18 10:32:01;;;;;;;7.30;4.22;;;;;;;;;;6180435;23;20021;-64
2023/03/18 10:34:27;;;;;;;;;;;;;;;;;;6180534;23;20105;-63
2023/03/18 10:37:05;;;;;;;5.95;3.97;;;;;;;;;;6180806;23;19900;-63
2023/03/18 10:39:32;;;;;;;7.78;4.07;;;;;;;;;;6179558;23;20076;-63
2023/03/18 10:42:00;;;;;;;6.90;3.92;;;;;;;;;;6154335;23;20009;-63
2023/03/18 10:44:28;;;;;;;6.60;3.90;;;;;;;;;;6179236;23;20001;-66
2023/03/18 10:46:59;;;;;;;8.63;4.63;;;;;;;;;;6177451;23;20132;-69
2023/03/18 10:49:27;;;;;;;9.13;5.22;;;;;;;;;;6178912;23;20011;-66
2023/03/18 10:51:54;;;;;;;7.90;4.22;;;;;;;;;;6178781;23;20013;-67
2023/03/18 10:54:39;;;;;;;7.90;4.65;;;;;;;;;;6180326;23;20009;-66
2023/03/18 10:57:05;;;;;;;8.52;5.00;;;;;;;;;;6179906;23;20444;-63
2023/03/18 10:59:33;;;;;;;6.53;4.40;;;;;;;;;;6294987;22;20330;-64
2023/03/18 11:02:04;;;;;;;10.10;5.20;;;;;;;;;;6302719;22;20066;-63
2023/03/18 11:04:34;;;;;;;6.20;4.45;;;;;;;;;;6304434;22;20056;-70
2023/03/18 11:07:05;;;;;;;6.90;4.10;;;;;;;;;;6304692;22;20045;-68
2023/03/18 11:09:33;;;;;;;7.28;4.50;;;;;;;;;;6303618;22;20369;-68
2023/03/18 11:12:04;;;;;;;6.60;4.45;;;;;;;;;;6304055;22;20019;-70
2023/03/18 11:14:31;;;;;;;9.73;4.75;;;;;;;;;;6304140;22;20084;-69
2023/03/18 11:17:01;;;;;;;10.40;4.45;;;;;;;;;;6304161;22;20113;-66
2023/03/18 11:19:28;;;;;;;6.40;3.67;;;;;;;;;;6304048;22;20059;-70
2023/03/18 11:22:03;;;;;;;4.95;3.63;;;;;;;;;;6303339;22;20378;-71
2023/03/18 11:24:37;;;;;;;5.35;3.58;;;;;;;;;;6304080;22;20415;-68
2023/03/18 11:27:04;;;;;;;6.35;3.78;;;;;;;;;;6303687;22;19999;-71
2023/03/18 11:29:32;;;;;;;7.32;3.63;;;;;;;;;;6302701;22;20014;-65
2023/03/18 11:31:59;;;;;;;6.63;4.28;;;;;;;;;;6303280;22;20018;-66
2023/03/18 11:34:26;;;;;;;5.63;3.50;;;;;;;;;;6303760;22;20381;-63
2023/03/18 11:37:18;;;;;;;5.00;3.20;;;;;;;;;;6304041;22;19996;-65
2023/03/18 11:39:44;;;;;;;6.20;3.35;;;;;;;;;;6298575;22;20034;-64
2023/03/18 11:42:18;;;;;;;8.35;3.88;;;;;;;;;;6304527;22;20003;-66
2023/03/18 11:44:44;;;;;;;7.20;4.05;;;;;;;;;;6304430;22;20003;-72
2023/03/18 11:47:30;;;;;;;5.90;3.50;;;;;;;;;;6303366;22;20034;-70
2023/03/18 11:49:56;;;;;;;5.25;3.60;;;;;;;;;;6304444;22;20031;-67
2023/03/18 11:52:38;;;;;;;6.72;3.90;;;;;;;;;;6303587;22;20003;-65
2023/03/18 11:55:08;;;;;;;7.30;4.05;;;;;;;;;;6303628;22;19999;-73
2023/03/18 11:57:53;;;;;;;7.40;3.78;;;;;;;;;;6304454;22;20026;-66
2023/03/18 12:00:19;;;;;;;7.95;4.50;;;;;;;;;;6303420;22;20065;-67
2023/03/18 12:02:48;;;;;;;8.32;4.07;;;;;;;;;;6303744;22;20000;-65
2023/03/18 12:05:33;;;;;;;7.15;3.50;;;;;;;;;;6304553;22;20113;-64
2023/03/18 12:08:02;;;;;;;5.78;3.50;;;;;;;;;;6304657;22;20090;-72
2023/03/18 12:10:28;;;;;;;6.28;3.65;;;;;;;;;;6304702;22;20023;-65
2023/03/18 12:12:54;;;;;;;5.43;3.28;;;;;;;;;;6304069;22;20030;-66
2023/03/18 12:15:33;;;;;;;6.05;3.28;;;;;;;;;;6302990;22;20008;-63
2023/03/18 12:17:59;;;;;;;7.28;3.60;;;;;;;;;;6303045;22;20026;-70
2023/03/18 12:20:44;;;;;;;5.75;2.85;;;;;;;;;;6303425;22;20006;-70
2023/03/18 12:23:20;;;;;;;4.90;3.58;;;;;;;;;;6304706;22;19995;-72
2023/03/18 12:25:49;;;;;;;6.93;4.00;;;;;;;;;;6305131;22;20008;-72
2023/03/18 12:28:20;;;;;;;5.63;3.40;;;;;;;;;;6306771;22;19999;-68
2023/03/18 12:30:58;;;;;;;4.50;2.67;;;;;;;;;;6306096;22;20030;-69
2023/03/18 12:33:50;;;;;;;5.20;2.40;;;;;;;;;;6305687;22;20015;-68
2023/03/18 12:36:16;;;;;;;4.07;2.70;;;;;;;;;;6306052;22;19999;-64
2023/03/18 12:38:52;;;;;;;5.10;2.92;;;;;;;;;;6304511;22;20520;-64
2023/03/18 12:41:24;;;;;;;5.43;3.22;;;;;;;;;;6306344;22;19999;-65
2023/03/18 12:43:50;;;;;;;;;;;;;;;;;;6306761;22;20074;-67
2023/03/18 12:46:16;;;;;;;4.68;2.90;;;;;;;;;;6305167;22;19921;-67
2023/03/18 12:48:50;;;;;;;4.07;2.75;;;;;;;;;;6304875;22;20035;-67
2023/03/18 12:51:20;;;;;;;4.32;2.65;;;;;;;;;;6304484;22;20104;-70
2023/03/18 12:53:49;;;;;;;6.47;2.90;;;;;;;;;;6305192;22;20111;-64
2023/03/18 12:56:18;;;;;;;7.75;3.95;;;;;;;;;;6304660;22;20010;-64
2023/03/18 12:58:50;;;;;;;4.88;3.03;;;;;;;;;;6304914;22;20080;-68
2023/03/18 13:01:18;;;;;;;6.00;3.38;;;;;;;;;;6304777;22;20502;-70
2023/03/18 13:03:46;;;;;;;7.03;3.30;;;;;;;;;;6305152;22;20325;-67
2023/03/18 13:06:25;;;;;;;5.80;3.55;;;;;;;;;;6305053;22;20408;-64
2023/03/18 13:08:51;;;;;;;7.85;3.70;;;;;;;;;;6304657;22;20029;-68
2023/03/18 13:11:20;;;;;;;5.40;3.20;;;;;;;;;;6303655;22;20014;-69
2023/03/18 13:13:50;;;;;;;5.38;3.55;;;;;;;;;;6305039;22;20019;-64
2023/03/18 13:16:17;;;;;;;8.30;3.05;;;;;;;;;;6304492;22;20046;-69
2023/03/18 13:18:50;;;;;;;4.88;3.20;;;;;;;;;;6304414;22;20010;-64
2023/03/18 13:21:19;;;;;;;5.15;3.30;;;;;;;;;;6305311;22;20003;-63
2023/03/18 13:23:45;;;;;;;5.20;3.22;;;;;;;;;;6305581;22;20014;-67
2023/03/18 13:26:23;;;;;;;7.88;4.20;;;;;;;;;;6305943;22;19999;-68
2023/03/18 13:28:49;;;;;;;4.47;3.10;;;;;;;;;;6305441;22;20356;-65
2023/03/18 13:31:34;;;;;;;6.13;3.50;;;;;;;;;;6304580;22;20007;-68
2023/03/18 13:34:09;;;;;;;5.65;3.65;;;;;;;;;;6303626;22;20038;-65
2023/03/18 13:36:54;;;;;;;6.15;3.60;;;;;;;;;;6304057;22;20026;-68
2023/03/18 13:39:23;;;;;;;5.80;3.70;;;;;;;;;;6302810;22;20083;-64
2023/03/18 13:42:08;;;;;;;9.63;4.40;;;;;;;;;;6304757;22;20075;-68
2023/03/18 13:44:40;;;;;;;7.65;3.47;;;;;;;;;;6305165;22;19999;-66
2023/03/18 13:47:08;;;;;;;6.10;3.40;;;;;;;;;;6304801;22;20023;-64
2023/03/18 13:49:36;;;;;;;6.93;3.83;;;;;;;;;;6305878;22;20301;-64
2023/03/18 13:52:03;;;;;;;6.00;3.30;;;;;;;;;;6305570;22;20412;-69
2023/03/18 13:54:34;;;;;;;4.97;3.38;;;;;;;;;;6305435;22;20031;-62
2023/03/18 13:57:17;;;;;;;5.78;3.30;;;;;;;;;;6305291;22;19999;-64
2023/03/18 13:59:44;;;;;;;8.05;3.88;;;;;;;;;;6305649;22;20022;-65
2023/03/18 14:02:22;;;;;;;6.90;3.80;;;;;;;;;;6305238;22;20453;-64
2023/03/18 14:04:49;;;;;;;6.18;3.65;;;;;;;;;;6304800;22;20076;-66
2023/03/18 14:07:19;;;;;;;8.05;4.85;;;;;;;;;;6305525;22;20003;-65
2023/03/18 14:10:09;;;;;;;8.48;3.97;;;;;;;;;;6305229;22;20049;-63
2023/03/18 14:12:35;;;;;;;6.35;3.83;;;;;;;;;;6155418;23;20009;-65
2023/03/18 14:15:11;;;;;;;5.50;4.03;;;;;;;;;;6179324;23;20008;-66
2023/03/18 14:17:37;;;;;;;6.80;3.95;;;;;;;;;;6179123;23;20012;-64
2023/03/18 14:20:12;;;;;;;7.88;4.40;;;;;;;;;;6178293;23;20013;-67
2023/03/18 14:22:39;;;;;;;6.68;4.65;;;;;;;;;;6178869;23;20449;-67
2023/03/18 14:25:14;;;;;;;9.55;5.35;;;;;;;;;;6153669;23;20011;-65
2023/03/18 14:27:46;;;;;;;7.63;5.35;;;;;;;;;;6178913;23;20035;-67
2023/03/18 14:30:27;;;;;;;8.43;5.20;;;;;;;;;;6178673;23;20005;-67
2023/03/18 14:32:57;;;;;;;7.65;5.45;;;;;;;;;;6153713;23;20020;-66
2023/03/18 14:35:27;;;;;;;9.00;5.55;;;;;;;;;;6178974;23;20473;-65
2023/03/18 14:37:59;;;;;;;9.73;6.07;;;;;;;;;;6178580;23;20080;-66
2023/03/18 14:40:26;;;;;;;9.88;6.13;;;;;;;;;;6178988;23;20111;-65
2023/03/18 14:42:57;;;;;;;9.13;5.95;;;;;;;;;;6178330;23;20052;-66
2023/03/18 14:45:34;;;;;;;8.43;5.90;;;;;;;;;;6178386;23;20017;-68
2023/03/18 14:48:05;;;;;;;8.45;5.35;;;;;;;;;;6179313;23;20104;-65
2023/03/18 14:50:42;;;;;;;9.32;6.50;;;;;;;;;;6290602;22;20078;-67
2023/03/18 14:53:08;;;;;;;11.20;6.93;;;;;;;;;;6303453;22;20011;-68
2023/03/18 14:55:35;;;;;;;11.43;6.57;;;;;;;;;;6304162;22;19999;-67
2023/03/18 14:58:02;;;;;;;10.38;6.07;;;;;;;;;;6305049;22;20027;-74
2023/03/18 15:00:29;;;;;;;8.65;6.05;;;;;;;;;;6304388;22;19999;-75
2023/03/18 15:03:02;;;;;;;11.15;5.82;;;;;;;;;;6302921;22;20003;-69
2023/03/18 15:05:34;;;;;;;9.18;6.40;;;;;;;;;;6305420;22;20100;-68
2023/03/18 15:08:00;;;;;;;10.38;6.35;;;;;;;;;;6304702;22;20007;-73
2023/03/18 15:10:31;;;;;;;10.00;5.95;;;;;;;;;;6304055;22;20033;-71
2023/03/18 15:12:59;;;;;;;7.60;5.88;;;;;;;;;;6304708;22;20011;-68
2023/03/18 15:15:26;;;;;;;10.10;5.30;;;;;;;;;;6303629;22;20010;-71
2023/03/18 15:17:52;;;;;;;8.52;5.40;;;;;;;;;;6303633;22;20003;-72
2023/03/18 15:20:19;;;;;;;11.65;6.00;;;;;;;;;;6304924;22;20038;-69
2023/03/18 15:22:45;;;;;;;8.70;5.93;;;;;;;;;;6304954;22;20007;-66
2023/03/18 15:25:16;;;;;;;8.90;5.50;;;;;;;;;;6304376;22;19996;-67
2023/03/18 15:27:42;;;;;;;8.60;5.90;;;;;;;;;;6303857;22;20642;-69
2023/03/18 15:30:41;;;;;;;8.70;5.47;;;;;;;;;;6303253;22;20003;-68
2023/03/18 15:33:17;;;;;;;11.85;5.90;;;;;;;;;;6178445;23;20020;-64
2023/03/18 15:35:44;;;;;;;8.73;5.75;;;;;;;;;;6180077;23;20005;-67
2023/03/18 15:38:15;;;;;;;10.30;5.47;;;;;;;;;;6179567;23;20013;-67
2023/03/18 15:40:43;;;;;;;10.80;6.22;;;;;;;;;;6180222;23;20757;-66
2023/03/18 15:43:09;;;;;;;9.43;5.25;;;;;;;;;;6179514;23;20434;-65
2023/03/18 15:45:39;;;;;;;10.57;6.07;;;;;;;;;;6179371;23;20095;-67
2023/03/18 15:48:09;;;;;;;13.43;6.65;;;;;;;;;;6179473;23;20056;-65
2023/03/18 15:50:35;;;;;;;14.18;7.07;;;;;;;;;;6180271;23;20009;-72
2023/03/18 15:53:21;;;;;;;12.50;7.63;;;;;;;;;;6179368;23;20056;-68
2023/03/18 15:55:47;;;;;;;13.73;7.30;;;;;;;;;;6179943;23;20009;-66
2023/03/18 15:58:34;;;;;;;10.70;6.90;;;;;;;;;;6179491;23;20001;-66
2023/03/18 16:01:00;;;;;;;10.75;7.28;;;;;;;;;;6180360;23;20556;-68
2023/03/18 16:03:30;;;;;;;12.63;6.80;;;;;;;;;;6181718;23;20012;-68
2023/03/18 16:05:57;;;;;;;12.48;7.07;;;;;;;;;;6182195;23;20013;-69
2023/03/18 16:08:23;;;;;;;13.82;7.22;;;;;;;;;;6228734;22;20086;-66
2023/03/18 16:10:50;;;;;;;10.30;6.38;;;;;;;;;;6305987;22;20004;-66
2023/03/18 16:13:19;;;;;;;10.52;6.70;;;;;;;;;;6306825;22;20035;-66
2023/03/18 16:15:45;;;;;;;11.90;7.82;;;;;;;;;;6306783;22;20007;-66
2023/03/18 16:18:11;;;;;;;12.45;7.38;;;;;;;;;;6306215;22;20128;-68
2023/03/18 16:20:38;;;;;;;13.35;8.23;;;;;;;;;;6306612;22;20002;-67
2023/03/18 16:23:05;;;;;;;16.40;8.05;;;;;;;;;;6306610;22;20009;-68
2023/03/18 16:25:31;;;;;;;15.68;9.02;;;;;;;;;;6306886;22;20506;-67
2023/03/18 16:28:00;;;;;;;18.58;10.23;;;;;;;;;;6305004;22;20088;-66
2023/03/18 16:30:27;;;;;;;20.33;11.48;;;;;;;;;;6306033;22;20074;-66
2023/03/18 16:32:54;;;;;;;22.23;12.10;;;;;;;;;;6305357;22;20011;-66
2023/03/18 16:35:24;;;;;;;23.35;11.55;;;;;;;;;;6304872;22;20006;-67
2023/03/18 16:37:53;;;;;;;23.52;12.15;;;;;;;;;;6306871;22;20011;-67
2023/03/18 16:40:20;;;;;;;19.10;11.30;;;;;;;;;;6305935;22;20010;-67
2023/03/18 16:42:54;;;;;;;19.90;11.50;;;;;;;;;;6305671;22;20420;-75
2023/03/18 16:45:21;;;;;;;22.92;11.85;;;;;;;;;;6305743;22;20018;-76
2023/03/18 16:47:48;;;;;;;23.80;12.02;;;;;;;;;;6304915;22;20011;-75
2023/03/18 16:50:27;;;;;;;23.23;13.18;;;;;;;;;;6305890;22;20015;-75
2023/03/18 16:52:53;;;;;;;23.00;13.15;;;;;;;;;;6306528;22;20085;-76
2023/03/18 16:55:20;;;;;;;19.50;11.55;;;;;;;;;;6305424;22;19999;-72
2023/03/18 16:57:57;;;;;;;18.85;10.93;;;;;;;;;;6305746;22;20003;-71
2023/03/18 17:00:31;;;;;;;22.08;11.60;;;;;;;;;;6305301;22;19996;-76
2023/03/18 17:02:58;;;;;;;21.02;11.60;;;;;;;;;;6305770;22;20049;-75
2023/03/18 17:05:25;;;;;;;20.00;12.23;;;;;;;;;;6305491;22;20046;-74
2023/03/18 17:07:51;;;;;;;23.35;13.35;;;;;;;;;;6305020;22;20038;-71
2023/03/18 17:10:18;;;;;;;23.08;12.82;;;;;;;;;;6304382;22;20030;-73
2023/03/18 17:12:48;;;;;;;23.77;12.63;;;;;;;;;;6304464;22;20015;-72
2023/03/18 17:15:16;;;;;;;23.58;12.40;;;;;;;;;;6306362;22;20018;-77
2023/03/18 17:17:43;;;;;;;24.38;12.73;;;;;;;;;;6304927;22;20067;-76
2023/03/18 17:20:19;;;;;;;23.35;13.02;;;;;;;;;;6305383;22;20426;-73
2023/03/18 17:22:45;;;;;;;21.20;12.73;;;;;;;;;;6304956;22;20014;-75
2023/03/18 17:25:12;;;;;;;23.85;12.70;;;;;;;;;;6305740;22;20078;-71
2023/03/18 17:27:44;;;;;;;22.08;12.13;;;;;;;;;;6305577;22;20006;-73
2023/03/18 17:30:20;;;;;;;21.58;12.73;;;;;;;;;;6306300;22;19999;-73
2023/03/18 17:32:46;;;;;;;24.95;12.48;;;;;;;;;;6305701;22;20495;-73
2023/03/18 17:35:14;;;;;;;23.30;12.60;;;;;;;;;;6304751;22;20061;-73
2023/03/18 17:37:40;;;;;;;25.30;12.30;;;;;;;;;;6305855;22;19999;-72
2023/03/18 17:40:07;;;;;;;25.35;13.85;;;;;;;;;;6305824;22;20007;-74
2023/03/18 17:42:33;;;;;;;26.10;13.52;;;;;;;;;;6305482;22;20503;-75
2023/03/18 17:45:06;;;;;;;24.15;12.90;;;;;;;;;;6305090;22;20007;-73
2023/03/18 17:47:32;;;;;;;27.08;14.48;;;;;;;;;;6304828;22;20058;-70
2023/03/18 17:49:59;;;;;;;26.17;13.68;;;;;;;;;;6305535;22;20003;-73
2023/03/18 17:52:26;;;;;;;27.27;13.40;;;;;;;;;;6305712;22;20054;-77
2023/03/18 17:54:52;;;;;;;27.30;13.48;;;;;;;;;;6303160;22;20297;-74
2023/03/18 17:57:18;;;;;;;25.45;13.25;;;;;;;;;;6305260;22;19999;-75
2023/03/18 17:59:44;;;;;;;27.92;14.63;;;;;;;;;;6304289;22;19999;-70
2023/03/18 18:02:19;;;;;;;28.33;14.10;;;;;;;;;;6305150;22;20687;-74
2023/03/18 18:04:46;;;;;;;27.15;14.48;;;;;;;;;;6303908;22;20003;-71
2023/03/18 18:07:20;;;;;;;30.92;14.75;;;;;;;;;;6305742;22;20010;-72
2023/03/18 18:09:48;;;;;;;26.80;14.52;;;;;;;;;;6305424;22;19995;-72
2023/03/18 18:12:16;;;;;;;28.75;14.98;;;;;;;;;;6305714;22;20000;-73
2023/03/18 18:14:43;;;;;;;31.48;16.67;;;;;;;;;;6302657;22;20060;-69
2023/03/18 18:17:13;;;;;;;30.13;15.10;;;;;;;;;;6303153;22;20011;-74
2023/03/18 18:19:39;;;;;;;28.00;15.50;;;;;;;;;;6303601;22;20022;-69
2023/03/18 18:22:05;;;;;;;30.05;15.98;;;;;;;;;;6303832;22;20070;-73
2023/03/18 18:24:32;;;;;;;25.73;13.57;;;;;;;;;;6302757;22;20007;-74
2023/03/18 18:26:58;;;;;;;25.20;13.70;;;;;;;;;;6303312;22;19999;-75
2023/03/18 18:29:27;;;;;;;26.00;13.75;;;;;;;;;;6303435;22;20051;-75
2023/03/18 18:31:53;;;;;;;27.48;14.32;;;;;;;;;;6303219;22;20003;-72
2023/03/18 18:34:20;;;;;;;24.90;13.45;;;;;;;;;;6301797;22;20015;-68
2023/03/18 18:36:46;;;;;;;30.85;14.65;;;;;;;;;;6304450;22;20066;-70
2023/03/18 18:39:13;;;;;;;28.20;14.00;;;;;;;;;;6303140;22;20078;-73
2023/03/18 18:41:39;;;;;;;27.95;13.55;;;;;;;;;;6304149;22;20473;-77
2023/03/18 18:44:05;;;;;;;27.73;13.60;;;;;;;;;;6304904;22;20009;-76
2023/03/18 18:46:32;;;;;;;23.77;13.13;;;;;;;;;;6303008;22;20023;-74
2023/03/18 18:48:59;;;;;;;24.75;12.73;;;;;;;;;;6304319;22;20007;-81
2023/03/18 18:51:26;;;;;;;23.83;13.18;;;;;;;;;;6305206;22;20777;-75
2023/03/18 18:53:52;;;;;;;24.85;13.68;;;;;;;;;;6304623;22;20022;-79
2023/03/18 18:56:22;;;;;;;27.00;13.77;;;;;;;;;;6305420;22;20021;-76
2023/03/18 18:58:49;;;;;;;28.70;14.77;;;;;;;;;;6305178;22;20010;-75
2023/03/18 19:01:15;;;;;;;26.35;13.60;;;;;;;;;;6304406;22;20060;-73
2023/03/18 19:03:42;;;;;;;28.27;14.20;;;;;;;;;;6304597;22;20010;-74
2023/03/18 19:06:19;;;;;;;26.70;14.98;;;;;;;;;;6304083;22;19995;-73
2023/03/18 19:08:46;;;;;;;24.58;13.18;;;;;;;;;;6304170;22;20757;-73
2023/03/18 19:11:12;;;;;;;26.67;13.48;;;;;;;;;;6305054;22;20003;-73
2023/03/18 19:13:38;;;;;;;28.05;14.02;;;;;;;;;;6304605;22;20015;-71
2023/03/18 19:16:07;;;;;;;28.33;14.40;;;;;;;;;;6304399;22;20686;-73
2023/03/18 19:18:39;;;;;;;26.92;13.98;;;;;;;;;;6304158;22;20037;-73
2023/03/18 19:21:06;;;;;;;27.77;14.18;;;;;;;;;;6304739;22;20010;-71
2023/03/18 19:23:33;;;;;;;28.15;14.68;;;;;;;;;;6304515;22;20331;-71
2023/03/18 19:25:59;;;;;;;29.73;14.95;;;;;;;;;;6304372;22;19999;-72
2023/03/18 19:28:51;;;;;;;32.78;16.15;;;;;;;;;;6304414;22;20011;-72
2023/03/18 19:31:25;;;;;;;29.52;15.43;;;;;;;;;;6304467;22;20014;-69
2023/03/18 19:33:51;;;;;;;31.10;16.67;;;;;;;;;;6303912;22;20011;-71
2023/03/18 19:36:23;;;;;;;31.15;15.43;;;;;;;;;;6304102;22;20007;-70
2023/03/18 19:38:50;;;;;;;26.08;14.27;;;;;;;;;;6304663;22;20014;-70
2023/03/18 19:41:16;;;;;;;26.88;13.95;;;;;;;;;;6304931;22;20010;-70
2023/03/18 19:43:42;;;;;;;27.23;13.82;;;;;;;;;;6302383;22;20014;-70
2023/03/18 19:46:17;;;;;;;22.35;12.02;;;;;;;;;;6303956;22;20122;-71
2023/03/18 19:48:43;;;;;;;21.60;11.55;;;;;;;;;;6304693;22;20011;-69
2023/03/18 19:51:14;;;;;;;22.65;12.00;;;;;;;;;;6304066;22;19999;-71
2023/03/18 19:53:40;;;;;;;23.25;12.23;;;;;;;;;;6304530;22;20015;-65
2023/03/18 19:56:08;;;;;;;21.85;12.38;;;;;;;;;;6304759;22;20084;-67
2023/03/18 19:58:34;;;;;;;22.95;11.45;;;;;;;;;;6304809;22;20025;-66
2023/03/18 20:01:02;;;;;;;19.83;10.73;;;;;;;;;;6304120;22;20003;-66
2023/03/18 20:03:29;;;;;;;19.48;9.45;;;;;;;;;;6302786;22;20048;-66
2023/03/18 20:05:55;;;;;;;17.92;9.45;;;;;;;;;;6303707;22;20411;-66
2023/03/18 20:08:21;;;;;;;19.10;9.80;;;;;;;;;;6303711;22;20493;-65
2023/03/18 20:10:47;;;;;;;20.20;10.20;;;;;;;;;;6303205;22;20007;-65
2023/03/18 20:13:15;;;;;;;18.63;9.60;;;;;;;;;;6303161;22;20017;-67
2023/03/18 20:15:41;;;;;;;21.02;9.50;;;;;;;;;;6303090;22;20013;-68
2023/03/18 20:18:12;;;;;;;16.08;9.02;;;;;;;;;;6302790;22;20078;-67
2023/03/18 20:20:38;;;;;;;19.38;8.80;;;;;;;;;;6302952;22;20011;-65
2023/03/18 20:23:06;;;;;;;18.67;9.02;;;;;;;;;;6302756;22;20080;-66
2023/03/18 20:25:34;;;;;;;15.90;8.32;;;;;;;;;;6303556;22;20070;-66
2023/03/18 20:28:02;;;;;;;16.13;9.02;;;;;;;;;;6304073;22;20014;-66
2023/03/18 20:30:31;;;;;;;16.33;8.50;;;;;;;;;;6304006;22;20014;-65
2023/03/18 20:32:57;;;;;;;13.48;7.85;;;;;;;;;;6303995;22;20003;-66
2023/03/18 20:35:26;;;;;;;16.83;9.00;;;;;;;;;;6304735;22;20362;-66
2023/03/18 20:37:52;;;;;;;17.40;9.02;;;;;;;;;;6303812;22;20082;-67
2023/03/18 20:40:25;;;;;;;16.17;9.02;;;;;;;;;;6304671;22;20104;-66
2023/03/18 20:42:52;;;;;;;15.07;8.52;;;;;;;;;;6304327;22;20045;-69
2023/03/18 20:45:19;;;;;;;17.67;9.02;;;;;;;;;;6304210;22;20011;-66
2023/03/18 20:47:45;;;;;;;14.43;8.43;;;;;;;;;;6305330;22;20035;-65
2023/03/18 20:50:12;;;;;;;15.38;8.80;;;;;;;;;;6305852;22;20023;-70
2023/03/18 20:52:39;;;;;;;19.48;9.93;;;;;;;;;;6305823;22;20312;-66
2023/03/18 20:55:12;;;;;;;18.73;9.93;;;;;;;;;;6306490;22;20022;-65
2023/03/18 20:57:38;;;;;;;20.70;9.90;;;;;;;;;;6306021;22;20003;-65
2023/03/18 21:00:05;;;;;;;17.95;9.57;;;;;;;;;;6306008;22;20423;-65
2023/03/18 21:02:33;;;;;;;22.30;10.38;;;;;;;;;;6305510;22;20451;-68
2023/03/18 21:05:00;;;;;;;22.08;10.77;;;;;;;;;;6306365;22;20049;-66
2023/03/18 21:07:26;;;;;;;21.15;9.80;;;;;;;;;;6306222;22;20007;-69
2023/03/18 21:09:53;;;;;;;19.15;9.70;;;;;;;;;;6306143;22;20022;-65
2023/03/18 21:12:20;;;;;;;19.50;10.77;;;;;;;;;;6305460;22;19999;-67